createdAt,value
2022-08-07T00:00:45.924Z,44.44
2022-08-07T00:03:51.007Z,44.26
2022-08-07T00:06:54.808Z,44.40
2022-08-07T00:10:25.525Z,44.28
2022-08-07T00:13:23.782Z,44.47
2022-08-07T00:16:31.079Z,44.38
2022-08-07T00:20:01.436Z,44.48
2022-08-07T00:22:59.631Z,44.28
2022-08-07T00:26:13.340Z,44.24
2022-08-07T00:29:31.356Z,44.29
2022-08-07T00:32:37.284Z,44.21
2022-08-07T00:35:41.071Z,44.23
2022-08-07T00:38:44.800Z,44.31
2022-08-07T00:42:02.307Z,44.23
2022-08-07T00:45:16.331Z,44.21
2022-08-07T00:48:24.935Z,44.24
2022-08-07T00:51:57.197Z,44.49
2022-08-07T00:54:58.967Z,44.33
2022-08-07T00:58:08.771Z,44.39
2022-08-07T01:01:12.828Z,44.52
2022-08-07T01:04:21.682Z,44.52
2022-08-07T01:07:31.108Z,44.50
2022-08-07T01:10:35.590Z,44.55
2022-08-07T01:13:39.728Z,44.68
2022-08-07T01:17:00.333Z,44.42
2022-08-07T01:20:16.711Z,44.35
2022-08-07T01:23:35.484Z,44.43
2022-08-07T01:26:44.262Z,44.35
2022-08-07T01:29:56.559Z,44.33
2022-08-07T01:33:01.380Z,44.29
2022-08-07T01:36:09.951Z,44.43
2022-08-07T01:39:18.472Z,44.38
2022-08-07T01:42:38.619Z,44.28
2022-08-07T01:45:55.763Z,44.44
2022-08-07T01:49:03.785Z,44.36
2022-08-07T01:52:10.946Z,44.36
2022-08-07T01:55:24.233Z,44.38
2022-08-07T01:58:37.466Z,44.63
2022-08-07T02:02:02.027Z,44.44
2022-08-07T02:05:15.906Z,44.35
2022-08-07T02:08:41.748Z,44.58
2022-08-07T02:12:04.062Z,44.46
2022-08-07T02:15:14.444Z,44.62
2022-08-07T02:18:23.045Z,44.39
2022-08-07T02:21:56.741Z,44.59
2022-08-07T02:24:57.116Z,44.48
2022-08-07T02:28:07.011Z,44.57
2022-08-07T02:31:18.965Z,44.56
2022-08-07T02:34:34.940Z,44.60
2022-08-07T02:37:44.147Z,44.57
2022-08-07T02:40:53.847Z,44.72
2022-08-07T02:44:03.276Z,44.71
2022-08-07T02:47:19.610Z,44.69
2022-08-07T02:50:27.387Z,44.69
2022-08-07T02:53:38.463Z,44.59
2022-08-07T02:56:49.144Z,44.77
2022-08-07T03:00:01.239Z,44.69
2022-08-07T03:03:13.502Z,44.61
2022-08-07T03:06:26.289Z,44.56
2022-08-07T03:09:43.960Z,44.62
2022-08-07T03:12:51.891Z,44.68
2022-08-07T03:15:58.845Z,44.53
2022-08-07T03:19:06.847Z,44.42
2022-08-07T03:22:18.711Z,44.62
2022-08-07T03:25:25.896Z,44.64
2022-08-07T03:28:39.559Z,44.60
2022-08-07T03:31:49.925Z,44.80
2022-08-07T03:35:16.559Z,44.73
2022-08-07T03:38:29.733Z,44.58
2022-08-07T03:41:42.152Z,44.60
2022-08-07T03:44:53.719Z,44.70
2022-08-07T03:48:04.443Z,44.76
2022-08-07T03:51:15.268Z,44.74
2022-08-07T03:54:36.508Z,44.77
2022-08-07T03:58:34.646Z,44.66
2022-08-07T04:01:17.344Z,44.67
2022-08-07T04:04:25.623Z,44.74
2022-08-07T04:07:35.989Z,44.64
2022-08-07T04:10:54.001Z,44.67
2022-08-07T04:14:38.461Z,44.72
2022-08-07T04:18:11.234Z,44.63
2022-08-07T04:21:01.588Z,44.71
2022-08-07T04:24:10.455Z,44.74
2022-08-07T04:27:44.021Z,44.63
2022-08-07T04:30:55.539Z,44.74
2022-08-07T04:34:05.877Z,44.64
2022-08-07T04:37:22.548Z,44.66
2022-08-07T04:40:32.204Z,44.78
2022-08-07T04:44:10.307Z,44.77
2022-08-07T04:47:11.233Z,44.67
2022-08-07T04:50:39.824Z,44.64
2022-08-07T04:54:05.826Z,44.76
2022-08-07T04:58:11.507Z,44.59
2022-08-07T05:00:51.659Z,44.74
2022-08-07T05:04:08.912Z,44.71
2022-08-07T05:07:30.441Z,44.59
2022-08-07T05:10:48.412Z,44.58
2022-08-07T05:14:51.970Z,44.70
2022-08-07T05:17:51.466Z,44.70
2022-08-07T05:20:54.806Z,44.56
2022-08-07T05:24:02.216Z,44.45
2022-08-07T05:27:14.468Z,44.62
2022-08-07T05:30:40.159Z,44.47
2022-08-07T05:34:01.028Z,44.45
2022-08-07T05:37:10.312Z,44.37
2022-08-07T05:40:23.089Z,44.38
2022-08-07T05:44:07.758Z,44.36
2022-08-07T05:47:01.195Z,44.42
2022-08-07T05:50:07.609Z,44.33
2022-08-07T05:54:08.483Z,44.09
2022-08-07T05:56:40.768Z,44.30
2022-08-07T05:59:57.507Z,44.16
2022-08-07T06:03:08.107Z,44.12
2022-08-07T06:06:17.428Z,44.17
2022-08-07T06:10:04.622Z,44.09
2022-08-07T06:12:49.823Z,44.17
2022-08-07T06:15:56.746Z,44.04
2022-08-07T06:19:06.627Z,44.07
2022-08-07T06:22:22.784Z,44.12
2022-08-07T06:25:34.752Z,44.08
2022-08-07T06:28:49.448Z,44.03
2022-08-07T06:31:58.515Z,43.97
2022-08-07T06:35:10.543Z,43.90
2022-08-07T06:38:22.069Z,43.70
2022-08-07T06:42:02.477Z,43.76
2022-08-07T06:44:59.487Z,43.91
2022-08-07T06:48:06.658Z,43.66
2022-08-07T06:51:31.157Z,43.67
2022-08-07T06:55:33.827Z,43.38
2022-08-07T06:58:10.174Z,42.96
2022-08-07T07:01:23.145Z,42.74
2022-08-07T07:04:33.313Z,42.87
2022-08-07T07:07:59.772Z,42.71
2022-08-07T07:11:02.814Z,42.94
2022-08-07T07:14:23.298Z,42.84
2022-08-07T07:17:38.768Z,42.90
2022-08-07T07:20:48.786Z,42.86
2022-08-07T07:24:09.420Z,42.97
2022-08-07T07:27:19.521Z,43.13
2022-08-07T07:30:37.950Z,43.25
2022-08-07T07:33:44.598Z,43.24
2022-08-07T07:37:14.722Z,43.16
2022-08-07T07:40:28.055Z,43.27
2022-08-07T07:44:14.805Z,43.25
2022-08-07T07:47:14.302Z,43.36
2022-08-07T07:50:33.285Z,43.30
2022-08-07T07:53:51.830Z,43.60
2022-08-07T07:56:59.030Z,43.36
2022-08-07T08:00:07.547Z,43.48
2022-08-07T08:04:06.123Z,43.47
2022-08-07T08:06:52.332Z,43.52
2022-08-07T08:10:04.883Z,43.50
2022-08-07T08:13:15.165Z,43.66
2022-08-07T08:16:24.972Z,43.77
2022-08-07T08:20:19.263Z,43.83
2022-08-07T08:23:15.853Z,43.74
2022-08-07T08:26:40.434Z,43.84
2022-08-07T08:29:55.812Z,43.49
2022-08-07T08:33:03.218Z,44.00
2022-08-07T08:36:09.852Z,43.94
2022-08-07T08:39:16.620Z,44.04
2022-08-07T08:42:28.570Z,44.02
2022-08-07T08:45:58.473Z,44.01
2022-08-07T08:49:11.411Z,44.04
2022-08-07T08:52:23.296Z,44.05
2022-08-07T08:55:54.531Z,44.13
2022-08-07T08:59:13.502Z,44.07
2022-08-07T09:02:36.524Z,44.17
2022-08-07T09:05:49.098Z,44.21
2022-08-07T09:09:09.702Z,44.17
2022-08-07T09:12:41.876Z,44.17
2022-08-07T09:16:24.885Z,44.20
2022-08-07T09:19:53.301Z,43.79
2022-08-07T09:24:33.794Z,43.24
2022-08-07T09:26:47.701Z,42.72
2022-08-07T09:30:08.378Z,42.35
2022-08-07T09:33:52.684Z,42.25
2022-08-07T09:37:01.548Z,42.24
2022-08-07T09:40:17.932Z,42.18
2022-08-07T09:44:03.455Z,41.85
2022-08-07T09:47:50.854Z,41.79
2022-08-07T09:50:47.501Z,41.52
2022-08-07T09:54:02.693Z,41.80
2022-08-07T09:57:18.883Z,41.57
2022-08-07T10:00:32.132Z,41.49
2022-08-07T10:04:06.247Z,41.42
2022-08-07T10:07:52.970Z,41.38
2022-08-07T10:11:58.904Z,41.00
2022-08-07T10:14:54.310Z,40.75
2022-08-07T10:18:21.761Z,41.24
2022-08-07T10:22:12.216Z,41.49
2022-08-07T10:25:42.319Z,41.68
2022-08-07T10:29:00.256Z,41.50
2022-08-07T10:32:51.058Z,41.24
2022-08-07T10:36:10.910Z,41.48
2022-08-07T10:39:41.518Z,41.77
2022-08-07T10:43:03.029Z,41.98
2022-08-07T10:46:14.587Z,42.14
2022-08-07T10:49:49.901Z,42.12
2022-08-07T10:52:59.923Z,42.37
2022-08-07T10:56:20.929Z,42.41
2022-08-07T10:59:48.523Z,42.50
2022-08-07T11:03:04.039Z,42.69
2022-08-07T11:06:21.966Z,42.67
2022-08-07T11:10:09.131Z,42.71
2022-08-07T11:13:01.721Z,42.66
2022-08-07T11:16:11.199Z,42.80
2022-08-07T11:19:21.725Z,42.81
2022-08-07T11:22:45.835Z,42.85
2022-08-07T11:25:55.907Z,42.97
2022-08-07T11:29:41.095Z,42.98
2022-08-07T11:32:49.782Z,42.92
2022-08-07T11:36:10.433Z,42.93
2022-08-07T11:39:25.157Z,43.08
2022-08-07T11:42:59.123Z,43.15
2022-08-07T11:46:23.336Z,43.16
2022-08-07T11:50:30.105Z,43.10
2022-08-07T11:53:28.448Z,43.27
2022-08-07T11:56:56.123Z,43.23
2022-08-07T12:00:19.025Z,43.30
2022-08-07T12:03:49.545Z,43.18
2022-08-07T12:07:17.328Z,43.06
2022-08-07T12:10:28.893Z,43.36
2022-08-07T12:13:47.768Z,43.14
2022-08-07T12:16:56.285Z,42.95
2022-08-07T12:20:12.879Z,42.84
2022-08-07T12:24:06.403Z,42.83
2022-08-07T12:27:15.829Z,42.79
2022-08-07T12:30:25.458Z,42.79
2022-08-07T12:33:56.717Z,42.58
2022-08-07T12:36:59.116Z,42.75
2022-08-07T12:40:14.839Z,42.63
2022-08-07T12:44:02.039Z,42.75
2022-08-07T12:47:10.944Z,42.70
2022-08-07T12:50:38.311Z,42.53
2022-08-07T12:54:23.857Z,42.72
2022-08-07T12:57:18.769Z,42.51
2022-08-07T13:00:32.541Z,42.45
2022-08-07T13:04:03.098Z,42.44
2022-08-07T13:08:12.122Z,42.37
2022-08-07T13:11:27.207Z,42.39
2022-08-07T13:14:51.392Z,42.53
2022-08-07T13:18:04.507Z,42.52
2022-08-07T13:21:50.230Z,42.33
2022-08-07T13:24:52.496Z,42.40
2022-08-07T13:28:13.951Z,42.50
2022-08-07T13:31:32.026Z,42.40
2022-08-07T13:34:48.469Z,42.41
2022-08-07T13:38:01.809Z,42.42
2022-08-07T13:41:17.717Z,42.36
2022-08-07T13:44:27.030Z,42.46
2022-08-07T13:48:06.167Z,42.38
2022-08-07T13:51:26.870Z,42.51
2022-08-07T13:54:34.115Z,42.25
2022-08-07T13:57:51.636Z,42.60
2022-08-07T14:01:13.130Z,42.29
2022-08-07T14:04:21.423Z,42.40
2022-08-07T14:07:30.607Z,42.28
2022-08-07T14:10:42.107Z,42.40
2022-08-07T14:13:55.824Z,42.48
2022-08-07T14:17:13.243Z,42.32
2022-08-07T14:20:41.126Z,42.56
2022-08-07T14:24:00.591Z,42.40
2022-08-07T14:28:11.657Z,42.38
2022-08-07T14:30:36.039Z,42.25
2022-08-07T14:33:47.412Z,42.45
2022-08-07T14:36:56.176Z,42.41
2022-08-07T14:40:17.990Z,42.19
2022-08-07T14:43:55.792Z,42.31
2022-08-07T14:47:08.977Z,42.43
2022-08-07T14:50:20.669Z,42.54
2022-08-07T14:56:53.038Z,42.36
2022-08-07T15:00:04.614Z,42.33
2022-08-07T15:03:18.658Z,42.56
2022-08-07T15:06:26.895Z,42.40
2022-08-07T15:09:59.508Z,42.44
2022-08-07T15:13:00.953Z,42.33
2022-08-07T15:16:11.167Z,42.48
2022-08-07T15:19:19.741Z,42.56
2022-08-07T15:22:53.634Z,42.35
2022-08-07T15:26:02.693Z,42.41
2022-08-07T15:36:05.160Z,42.39
2022-08-07T15:39:12.393Z,42.43
2022-08-07T15:49:15.538Z,42.47
2022-08-07T15:52:30.765Z,42.37
2022-08-07T15:56:01.987Z,42.26
2022-08-07T15:59:04.353Z,42.31
2022-08-07T16:02:15.577Z,42.57
2022-08-07T16:05:23.270Z,42.32
2022-08-07T16:08:41.415Z,42.39
2022-08-07T16:12:12.178Z,42.30
2022-08-07T16:15:55.065Z,42.32
2022-08-07T16:19:13.449Z,42.20
2022-08-07T16:22:54.380Z,42.36
2022-08-07T16:26:14.402Z,42.74
2022-08-07T16:30:11.085Z,42.60
2022-08-07T16:32:56.521Z,42.39
2022-08-07T16:36:31.249Z,42.88
2022-08-07T16:40:03.789Z,42.59
2022-08-07T16:43:24.935Z,42.73
2022-08-07T16:47:38.618Z,42.62
2022-08-07T16:51:21.877Z,42.82
2022-08-07T16:54:55.200Z,42.55
2022-08-07T16:58:04.157Z,42.42
2022-08-07T17:01:34.305Z,42.70
2022-08-07T17:04:51.016Z,42.90
2022-08-07T17:08:02.680Z,42.79
2022-08-07T17:11:14.305Z,42.56
2022-08-07T17:14:24.521Z,42.77
2022-08-07T17:17:46.332Z,42.91
2022-08-07T17:20:53.952Z,42.93
2022-08-07T17:24:23.778Z,42.83
2022-08-07T17:27:50.857Z,42.72
2022-08-07T17:31:15.941Z,42.96
2022-08-07T17:34:35.053Z,42.68
2022-08-07T17:38:06.491Z,42.68
2022-08-07T17:42:01.979Z,43.06
2022-08-07T17:44:51.149Z,42.83
2022-08-07T17:48:04.489Z,43.00
2022-08-07T17:51:21.355Z,43.02
2022-08-07T17:54:53.252Z,42.89
2022-08-07T17:58:05.162Z,42.79
2022-08-07T18:01:21.507Z,42.95
2022-08-07T18:04:34.735Z,43.37
2022-08-07T18:07:44.977Z,43.28
2022-08-07T18:12:06.182Z,43.36
2022-08-07T18:14:28.863Z,43.27
2022-08-07T18:18:39.919Z,43.05
2022-08-07T18:21:29.551Z,43.08
2022-08-07T18:24:36.847Z,43.55
2022-08-07T18:28:33.088Z,43.64
2022-08-07T18:31:50.279Z,43.94
2022-08-07T18:35:11.331Z,43.39
2022-08-07T18:38:56.140Z,43.46
2022-08-07T18:41:56.142Z,43.60
2022-08-07T18:45:43.179Z,43.52
2022-08-07T18:50:19.054Z,43.74
2022-08-07T18:52:54.197Z,43.61
2022-08-07T18:56:13.375Z,43.61
2022-08-07T18:59:59.343Z,43.75
2022-08-07T19:03:12.197Z,43.53
2022-08-07T19:06:20.466Z,43.38
2022-08-07T19:09:57.401Z,43.67
2022-08-07T19:13:11.784Z,43.86
2022-08-07T19:17:01.473Z,43.67
2022-08-07T19:20:30.199Z,43.79
2022-08-07T19:23:57.154Z,43.85
2022-08-07T19:28:30.701Z,43.79
2022-08-07T19:31:05.417Z,43.81
2022-08-07T19:34:02.777Z,43.69
2022-08-07T19:37:17.587Z,43.50
2022-08-07T19:40:31.639Z,43.29
2022-08-07T19:43:48.889Z,43.29
2022-08-07T19:47:04.679Z,43.37
2022-08-07T19:50:41.574Z,43.59
2022-08-07T19:54:32.590Z,43.61
2022-08-07T19:58:00.226Z,43.72
2022-08-07T20:00:29.870Z,43.57
2022-08-07T20:03:36.472Z,43.77
2022-08-07T20:06:43.014Z,44.03
2022-08-07T20:10:36.314Z,43.48
2022-08-07T20:13:23.107Z,43.89
2022-08-07T20:16:34.954Z,44.04
2022-08-07T20:19:47.475Z,44.12
2022-08-07T20:22:59.456Z,43.89
2022-08-07T20:26:10.032Z,43.93
2022-08-07T20:29:49.098Z,44.22
2022-08-07T20:32:44.818Z,43.89
2022-08-07T20:36:03.104Z,44.18
2022-08-07T20:39:30.456Z,43.86
2022-08-07T20:42:34.501Z,44.39
2022-08-07T20:46:25.746Z,44.58
2022-08-07T20:49:59.396Z,44.75
2022-08-07T20:52:51.297Z,44.81
2022-08-07T20:55:58.958Z,44.58
2022-08-07T20:59:06.051Z,44.94
2022-08-07T21:02:55.077Z,44.76
2022-08-07T21:06:21.745Z,44.85
2022-08-07T21:09:51.924Z,45.07
2022-08-07T21:13:01.793Z,45.11
2022-08-07T21:16:09.150Z,45.14
2022-08-07T21:19:15.007Z,44.89
2022-08-07T21:22:28.682Z,45.13
2022-08-07T21:25:44.992Z,45.25
2022-08-07T21:29:04.374Z,45.23
2022-08-07T21:32:47.430Z,45.30
2022-08-07T21:36:04.038Z,45.29
2022-08-07T21:39:46.669Z,45.13
2022-08-07T21:42:51.015Z,45.23
2022-08-07T21:46:10.050Z,45.07
2022-08-07T21:49:40.720Z,45.27
2022-08-07T21:53:08.584Z,45.24
2022-08-07T21:56:36.226Z,45.30
2022-08-07T22:00:04.673Z,45.26
2022-08-07T22:03:16.475Z,45.15
2022-08-07T22:06:29.998Z,45.31
2022-08-07T22:09:54.459Z,45.44
2022-08-07T22:13:02.611Z,45.34
2022-08-07T22:16:43.042Z,45.24
2022-08-07T22:19:43.425Z,45.25
2022-08-07T22:22:50.819Z,45.15
2022-08-07T22:26:05.795Z,45.29
2022-08-07T22:29:37.710Z,45.31
2022-08-07T22:32:58.990Z,45.06
2022-08-07T22:36:12.040Z,45.30
2022-08-07T22:39:28.328Z,45.09
2022-08-07T22:42:36.337Z,45.02
2022-08-07T22:46:40.832Z,45.16
2022-08-07T22:49:51.769Z,44.89
2022-08-07T22:54:06.493Z,44.97
2022-08-07T22:57:17.014Z,44.96
2022-08-07T23:00:28.602Z,44.83
2022-08-07T23:03:57.885Z,45.24
2022-08-07T23:07:30.141Z,45.05
2022-08-07T23:10:46.268Z,44.92
2022-08-07T23:14:15.672Z,45.16
2022-08-07T23:17:36.005Z,45.04
2022-08-07T23:21:16.625Z,45.12
2022-08-07T23:24:38.687Z,45.16
2022-08-07T23:28:21.757Z,45.30
2022-08-07T23:34:24.041Z,45.23
2022-08-07T23:35:16.571Z,45.42
2022-08-07T23:38:42.648Z,45.23
2022-08-07T23:42:04.583Z,45.30
2022-08-07T23:46:01.463Z,45.38
2022-08-07T23:49:15.449Z,45.33
2022-08-07T23:52:58.009Z,45.34
2022-08-07T23:56:01.773Z,45.39
